sensor_id;sensor_type;location;lat;lon;timestamp;pressure;altitude;pressure_sealevel;temperature;humidity
46382;BME280;66809;52.974;-2.514;2023-04-06T00:01:53;1005.8154499988759;;;9.106784101655837;44.17902598419156
46382;BME280;66809;52.974;-2.514;2023-04-06T00:03:52;1005.7983086674341;;;9.099148731500724;44.19209759316552
46382;BME280;66809;52.974;-2.514;2023-04-06T00:05:53;1005.7814291348149;;;9.098846261414357;44.19815098223765
46382;BME280;66809;52.974;-2.514;2023-04-06T00:07:52;1005.7651526535342;;;9.09854379130834;44.20400918861638
46382;BME280;66809;52.974;-2.514;2023-04-06T00:09:52;1005.7498693607215;;;9.104019861726952;44.20909105032936
46382;BME280;66809;52.974;-2.514;2023-04-06T00:11:53;1005.7348784246623;;;9.115803795377815;44.21349670413281
46382;BME280;66809;52.974;-2.514;2023-04-06T00:13:53;1005.7216119118525;;;9.114074993571329;44.21819866169324
46382;BME280;66809;52.974;-2.514;2023-04-06T00:15:52;1005.708713056183;;;9.108684941527402;44.22368730682104
46382;BME280;66809;52.974;-2.514;2023-04-06T00:17:53;1005.6963122978195;;;9.115776183937419;44.22655342765299
46382;BME280;66809;52.974;-2.514;2023-04-06T00:19:53;1005.683554807108;;;9.115225652467313;44.228060558545096
46382;BME280;66809;52.974;-2.514;2023-04-06T00:21:52;1005.6703162339903;;;9.116741997010196;44.22948097306199
46382;BME280;66809;52.974;-2.514;2023-04-06T00:23:53;1005.6569751342068;;;9.138919133234019;44.22739427735481
46382;BME280;66809;52.974;-2.514;2023-04-06T00:25:52;1005.6426263999142;;;9.151303599044928;44.22384138755009
46382;BME280;66809;52.974;-2.514;2023-04-06T00:27:52;1005.6282116863445;;;9.152719119780073;44.21852376811127
46382;BME280;66809;52.974;-2.514;2023-04-06T00:29:53;1005.6142663201063;;;9.168991681687142;44.21125689224485
46382;BME280;66809;52.974;-2.514;2023-04-06T00:31:52;1005.6000735176916;;;9.17573203020971;44.20203952911645
46382;BME280;66809;52.974;-2.514;2023-04-06T00:33:53;1005.5852619103698;;;9.183346182426114;44.189994031583375
46382;BME280;66809;52.974;-2.514;2023-04-06T00:35:52;1005.5710260401828;;;9.195697034763095;44.17667867664886
46382;BME280;66809;52.974;-2.514;2023-04-06T00:37:52;1005.555699138615;;;9.202487797070214;44.164531052211856
46382;BME280;66809;52.974;-2.514;2023-04-06T00:39:53;1005.5398114019735;;;9.215115910401845;44.150145288886876
46382;BME280;66809;52.974;-2.514;2023-04-06T00:41:53;1005.5243284804659;;;9.222898098284668;44.138395992384154
46382;BME280;66809;52.974;-2.514;2023-04-06T00:43:54;1005.507909170059;;;9.232646342101718;44.122165251058156
46382;BME280;66809;52.974;-2.514;2023-04-06T00:45:53;1005.491700535018;;;9.236943727043819;44.10514705743143
46382;BME280;66809;52.974;-2.514;2023-04-06T00:47:52;1005.4763096838907;;;9.255291574127577;44.09027576501972
46382;BME280;66809;52.974;-2.514;2023-04-06T00:49:53;1005.460406759026;;;9.262267186788604;44.077541709633
46382;BME280;66809;52.974;-2.514;2023-04-06T00:51:52;1005.444750639991;;;9.273668627576342;44.068027900773224
46382;BME280;66809;52.974;-2.514;2023-04-06T00:53:53;1005.4296618293088;;;9.27973682826108;44.05812202109239
46382;BME280;66809;52.974;-2.514;2023-04-06T00:55:53;1005.4135580930774;;;9.289340248279304;44.04772318848092
46382;BME280;66809;52.974;-2.514;2023-04-06T00:57:52;1005.3968906838459;;;9.292291327201871;44.04102472639059
46382;BME280;66809;52.974;-2.514;2023-04-06T00:59:52;1005.381411859609;;;9.298676804534947;44.03617516184237
46382;BME280;66809;52.974;-2.514;2023-04-06T01:01:52;1005.3658988278883;;;9.304356519270252;44.03200536861751
46382;BME280;66809;52.974;-2.514;2023-04-06T01:03:53;1005.3525955670113;;;9.308229816605493;44.029974579845586
46382;BME280;66809;52.974;-2.514;2023-04-06T01:05:53;1005.3394122273997;;;9.31082601884566;44.03379635004838
46382;BME280;66809;52.974;-2.514;2023-04-06T01:07:52;1005.3257597214289;;;9.309357678496777;44.03742625258182
46382;BME280;66809;52.974;-2.514;2023-04-06T01:09:53;1005.3103150711867;;;9.312357175241974;44.04193385844424
46382;BME280;66809;52.974;-2.514;2023-04-06T01:11:53;1005.2942639684526;;;9.310981257718021;44.044978372303135
46382;BME280;66809;52.974;-2.514;2023-04-06T01:13:52;1005.2772336060015;;;9.314064774416485;44.05144004633016
46382;BME280;66809;52.974;-2.514;2023-04-06T01:15:52;1005.260138860377;;;9.317812045497744;44.05839335150157
46382;BME280;66809;52.974;-2.514;2023-04-06T01:17:53;1005.2421725850371;;;9.31657056008608;44.0658342253688
46382;BME280;66809;52.974;-2.514;2023-04-06T01:19:52;1005.2238075903026;;;9.314287232320652;44.07580969967593
46382;BME280;66809;52.974;-2.514;2023-04-06T01:21:52;1005.2049544598333;;;9.32132606703661;44.08490511582126
46382;BME280;66809;52.974;-2.514;2023-04-06T01:23:53;1005.186195240845;;;9.322359507561229;44.09379873987215
46382;BME280;66809;52.974;-2.514;2023-04-06T01:25:52;1005.1690385581676;;;9.322443527099557;44.10630127623289
46382;BME280;66809;52.974;-2.514;2023-04-06T01:27:52;1005.1522683195185;;;9.323308928345437;44.121151567238236
46382;BME280;66809;52.974;-2.514;2023-04-06T01:29:53;1005.1352408478131;;;9.320983589606131;44.13854837564581
46382;BME280;66809;52.974;-2.514;2023-04-06T01:31:53;1005.1174020763539;;;9.329081069048705;44.15526553634137
46382;BME280;66809;52.974;-2.514;2023-04-06T01:33:52;1005.099089404928;;;9.32722624004139;44.173055908715895
46382;BME280;66809;52.974;-2.514;2023-04-06T01:35:52;1005.0811599187504;;;9.334609554402535;44.190747389386885
46382;BME280;66809;52.974;-2.514;2023-04-06T01:37:53;1005.0626389863863;;;9.33537413190666;44.2109672395151
46382;BME280;66809;52.974;-2.514;2023-04-06T01:39:53;1005.0427067634372;;;9.331225569511194;44.23421295472754
46382;BME280;66809;52.974;-2.514;2023-04-06T01:41:52;1005.0223254113098;;;9.340505722539257;44.25784346681048
46382;BME280;66809;52.974;-2.514;2023-04-06T01:43:53;1005.0034795967869;;;9.342898277479442;44.28634600827093
46382;BME280;66809;52.974;-2.514;2023-04-06T01:45:52;1004.9833994183563;;;9.335699806650036;44.31572981936228
46382;BME280;66809;52.974;-2.514;2023-04-06T01:47:53;1004.9629127531982;;;9.327509905399415;44.34647461247291
46382;BME280;66809;52.974;-2.514;2023-04-06T01:49:53;1004.9435475582729;;;9.317916878633252;44.378480552108435
46382;BME280;66809;52.974;-2.514;2023-04-06T01:51:52;1004.924978411079;;;9.310363526234754;44.41652211634937
46382;BME280;66809;52.974;-2.514;2023-04-06T01:53:53;1004.9069416193817;;;9.308378667293017;44.45524888239968
46382;BME280;66809;52.974;-2.514;2023-04-06T01:55:52;1004.8900539936811;;;9.29879404522298;44.496522583412634
46382;BME280;66809;52.974;-2.514;2023-04-06T01:57:52;1004.8727497226953;;;9.29922054582983;44.533600335809545
46382;BME280;66809;52.974;-2.514;2023-04-06T01:59:53;1004.8543003137727;;;9.300041937900065;44.56726296992674
46382;BME280;66809;52.974;-2.514;2023-04-06T02:01:52;1004.8358453719815;;;9.292725841121333;44.59976317941473
46382;BME280;66809;52.974;-2.514;2023-04-06T02:03:53;1004.81641138886;;;9.296739972434827;44.6291505268441
46382;BME280;66809;52.974;-2.514;2023-04-06T02:05:53;1004.7968056865855;;;9.297101256392715;44.655714145310164
46382;BME280;66809;52.974;-2.514;2023-04-06T02:07:52;1004.7764189101508;;;9.298462372969569;44.67671900012534
46382;BME280;66809;52.974;-2.514;2023-04-06T02:09:54;1004.754531866989;;;9.294498653925135;44.69537741523017
46382;BME280;66809;52.974;-2.514;2023-04-06T02:11:52;1004.7330849822445;;;9.294053350255545;44.716080574104936
46382;BME280;66809;52.974;-2.514;2023-04-06T02:13:53;1004.711620200412;;;9.290308082227158;44.73395945688546
46382;BME280;66809;52.974;-2.514;2023-04-06T02:15:52;1004.6903507580624;;;9.296842800160704;44.7497919176208
46382;BME280;66809;52.974;-2.514;2023-04-06T02:17:52;1004.6696677362671;;;9.303595969475992;44.76494275817108
46382;BME280;66809;52.974;-2.514;2023-04-06T02:19:52;1004.6496178212885;;;9.303656791184151;44.77717915049708
46382;BME280;66809;52.974;-2.514;2023-04-06T02:21:53;1004.6305159019146;;;9.300448299600028;44.78493518194604
46382;BME280;66809;52.974;-2.514;2023-04-06T02:23:53;1004.6118475657119;;;9.300351494533563;44.794168407951766
46382;BME280;66809;52.974;-2.514;2023-04-06T02:25:52;1004.5930007188296;;;9.30744476360256;44.800484844940584
46382;BME280;66809;52.974;-2.514;2023-04-06T02:27:53;1004.5742095460356;;;9.32192135356828;44.80437302299087
46382;BME280;66809;52.974;-2.514;2023-04-06T02:29:52;1004.5571120468355;;;9.333005560622416;44.80269926209867
46382;BME280;66809;52.974;-2.514;2023-04-06T02:31:52;1004.5399841149743;;;9.340546150812328;44.79927366042805
46382;BME280;66809;52.974;-2.514;2023-04-06T02:33:53;1004.5227932737146;;;9.353083904325846;44.794968557398455
46382;BME280;66809;52.974;-2.514;2023-04-06T02:35:52;1004.5043797095457;;;9.356828821728788;44.787734103129004
46382;BME280;66809;52.974;-2.514;2023-04-06T02:37:52;1004.487362718613;;;9.373391117174553;44.77250417123477
46382;BME280;66809;52.974;-2.514;2023-04-06T02:39:53;1004.4724951473289;;;9.383348514629176;44.75414677011868
46382;BME280;66809;52.974;-2.514;2023-04-06T02:41:53;1004.4578306469489;;;9.390353384775645;44.73540643054522
46382;BME280;66809;52.974;-2.514;2023-04-06T02:43:52;1004.4437599579152;;;9.411971645274537;44.71256568906129
46382;BME280;66809;52.974;-2.514;2023-04-06T02:45:53;1004.4307550658872;;;9.431413797129778;44.689515584915505
46382;BME280;66809;52.974;-2.514;2023-04-06T02:47:52;1004.4178950320419;;;9.438761131691813;44.669877030163164
46382;BME280;66809;52.974;-2.514;2023-04-06T02:49:52;1004.4042509756716;;;9.457010195787538;44.65288644390509
46382;BME280;66809;52.974;-2.514;2023-04-06T02:51:53;1004.3896422477919;;;9.47221134891061;44.62868267617369
46382;BME280;66809;52.974;-2.514;2023-04-06T02:53:52;1004.3739912856238;;;9.488009039179454;44.60468049552664
46382;BME280;66809;52.974;-2.514;2023-04-06T02:55:52;1004.3582303520471;;;9.49901962091564;44.57726195662952
46382;BME280;66809;52.974;-2.514;2023-04-06T02:57:53;1004.3437512998601;;;9.510231850066495;44.55414151888743
46382;BME280;66809;52.974;-2.514;2023-04-06T02:59:52;1004.331094746319;;;9.526894947149229;44.53649553579627
46382;BME280;66809;52.974;-2.514;2023-04-06T03:01:53;1004.3188808633408;;;9.545389684342386;44.51367701179322
46382;BME280;66809;52.974;-2.514;2023-04-06T03:03:52;1004.3061001960613;;;9.554450086682696;44.48763356356095
46382;BME280;66809;52.974;-2.514;2023-04-06T03:05:52;1004.2936152108755;;;9.570417867748363;44.45885311503741
46382;BME280;66809;52.974;-2.514;2023-04-06T03:07:53;1004.2816730880918;;;9.592029774275556;44.43358564059727
46382;BME280;66809;52.974;-2.514;2023-04-06T03:09:52;1004.2719273875796;;;9.61549012309978;44.40705286147655
46382;BME280;66809;52.974;-2.514;2023-04-06T03:11:53;1004.2624230127092;;;9.639933506122203;44.37905808628065
46382;BME280;66809;52.974;-2.514;2023-04-06T03:13:53;1004.2532248994914;;;9.657343494182445;44.35046862527672
46382;BME280;66809;52.974;-2.514;2023-04-06T03:15:52;1004.2439467229023;;;9.68315438418647;44.32489905054147
46382;BME280;66809;52.974;-2.514;2023-04-06T03:17:53;1004.2334311509741;;;9.70730168455923;44.299906156630435
46382;BME280;66809;52.974;-2.514;2023-04-06T03:19:53;1004.2225470105399;;;9.738158135287263;44.27851247654832
46382;BME280;66809;52.974;-2.514;2023-04-06T03:21:52;1004.2109956942277;;;9.75295605806448;44.25984339994257
46382;BME280;66809;52.974;-2.514;2023-04-06T03:23:53;1004.1990733844996;;;9.771776515141356;44.24019202502634
46382;BME280;66809;52.974;-2.514;2023-04-06T03:25:52;1004.1852034371059;;;9.779473834361774;44.21945987552969
46382;BME280;66809;52.974;-2.514;2023-04-06T03:27:52;1004.1696017556917;;;9.791507517862092;44.19940297924482
46382;BME280;66809;52.974;-2.514;2023-04-06T03:29:53;1004.1515939509308;;;9.807454506733974;44.180218389058965
46382;BME280;66809;52.974;-2.514;2023-04-06T03:31:52;1004.1325251530387;;;9.815695937743055;44.1583826593179
46382;BME280;66809;52.974;-2.514;2023-04-06T03:33:53;1004.1114767034811;;;9.827019798689877;44.13993618404318
46382;BME280;66809;52.974;-2.514;2023-04-06T03:35:53;1004.092428771957;;;9.827557526018579;44.13475767657522
46382;BME280;66809;52.974;-2.514;2023-04-06T03:37:52;1004.0761218640095;;;9.830126512146672;44.14344648885109
46382;BME280;66809;52.974;-2.514;2023-04-06T03:39:53;1004.0598426226163;;;9.835336678676434;44.15048178384981
46382;BME280;66809;52.974;-2.514;2023-04-06T03:41:52;1004.0432949514067;;;9.837176713958128;44.15342343852372
46382;BME280;66809;52.974;-2.514;2023-04-06T03:43:53;1004.0244365617311;;;9.839764526314188;44.15666207705421
46382;BME280;66809;52.974;-2.514;2023-04-06T03:45:53;1004.0054418361883;;;9.848769435059252;44.16078851240809
46382;BME280;66809;52.974;-2.514;2023-04-06T03:47:52;1003.9864268626839;;;9.865460138223908;44.15759872284824
46382;BME280;66809;52.974;-2.514;2023-04-06T03:49:53;1003.9672048942689;;;9.872828679885792;44.14844751794151
46382;BME280;66809;52.974;-2.514;2023-04-06T03:51:52;1003.9499736100795;;;9.881659167143031;44.13920595780501
46382;BME280;66809;52.974;-2.514;2023-04-06T03:53:52;1003.9347531281716;;;9.886593154662625;44.12762327918332
46382;BME280;66809;52.974;-2.514;2023-04-06T03:55:53;1003.9198194020852;;;9.897020021586297;44.11418636175834
46382;BME280;66809;52.974;-2.514;2023-04-06T03:57:52;1003.9036933808072;;;9.91704631641118;44.09713304464098
46382;BME280;66809;52.974;-2.514;2023-04-06T03:59:53;1003.8851000095236;;;9.917714120185526;44.07509271588121
46382;BME280;66809;52.974;-2.514;2023-04-06T04:01:53;1003.8644933782768;;;9.916202857760394;44.05783211766059
46382;BME280;66809;52.974;-2.514;2023-04-06T04:03:53;1003.844986818653;;;9.928479103471167;44.041338608430145
46382;BME280;66809;52.974;-2.514;2023-04-06T04:05:53;1003.8266059117686;;;9.930467422351802;44.03216057836407
46382;BME280;66809;52.974;-2.514;2023-04-06T04:07:52;1003.8100377151193;;;9.938982991692724;44.027462048432234
46382;BME280;66809;52.974;-2.514;2023-04-06T04:09:53;1003.7941746781037;;;9.940207653309443;44.026565774157056
46382;BME280;66809;52.974;-2.514;2023-04-06T04:11:53;1003.7785925651565;;;9.925992571020162;44.02508198541039
46382;BME280;66809;52.974;-2.514;2023-04-06T04:13:53;1003.7637938292862;;;9.92263176949995;44.02751162706677
46382;BME280;66809;52.974;-2.514;2023-04-06T04:15:52;1003.748800326471;;;9.916248278001152;44.02760197695741
46382;BME280;66809;52.974;-2.514;2023-04-06T04:17:53;1003.7350120848563;;;9.900556474525045;44.02662193355362
46382;BME280;66809;52.974;-2.514;2023-04-06T04:19:52;1003.7214283954789;;;9.891570393319123;44.02320143885019
46382;BME280;66809;52.974;-2.514;2023-04-06T04:21:52;1003.7076858076096;;;9.907724307195446;44.01890227103467
46382;BME280;66809;52.974;-2.514;2023-04-06T04:23:53;1003.6937786133938;;;9.90250029210178;44.012445151444226
46382;BME280;66809;52.974;-2.514;2023-04-06T04:25:52;1003.6825415117705;;;9.901607648578043;44.00537884545828
46382;BME280;66809;52.974;-2.514;2023-04-06T04:27:53;1003.6739510742195;;;9.88572694171025;44.00054212017684
46382;BME280;66809;52.974;-2.514;2023-04-06T04:29:53;1003.6678586675495;;;9.870830200730317;44.006243720802225
46382;BME280;66809;52.974;-2.514;2023-04-06T04:31:52;1003.6636377356518;;;9.8617317673792;44.01830114361579
46382;BME280;66809;52.974;-2.514;2023-04-06T04:33:53;1003.6610146650875;;;9.846635416070862;44.02890976617542
46382;BME280;66809;52.974;-2.514;2023-04-06T04:35:52;1003.6573607057974;;;9.851580143796504;44.03250430757499
46382;BME280;66809;52.974;-2.514;2023-04-06T04:37:52;1003.6520057615073;;;9.849235990533886;44.02398928717884
46382;BME280;66809;52.974;-2.514;2023-04-06T04:39:53;1003.6451841326744;;;9.853727013163478;44.015363496612935
46382;BME280;66809;52.974;-2.514;2023-04-06T04:41:52;1003.6410093757098;;;9.844913334728945;44.01355999353627
46382;BME280;66809;52.974;-2.514;2023-04-06T04:43:52;1003.6372066937905;;;9.831993104246596;44.013714561110504
46382;BME280;66809;52.974;-2.514;2023-04-06T04:45:53;1003.631443764718;;;9.818081439563915;44.00819672392864
46382;BME280;66809;52.974;-2.514;2023-04-06T04:47:52;1003.6259066213831;;;9.800546515335656;44.00625356182593
46382;BME280;66809;52.974;-2.514;2023-04-06T04:49:53;1003.6231825195592;;;9.782404644025313;44.016006339097814
46382;BME280;66809;52.974;-2.514;2023-04-06T04:51:53;1003.6215056208882;;;9.755333497424328;44.02603025241659
46382;BME280;66809;52.974;-2.514;2023-04-06T04:53:52;1003.6205023659913;;;9.732946637701158;44.04208152251296
46382;BME280;66809;52.974;-2.514;2023-04-06T04:55:53;1003.6217852464735;;;9.709734387259001;44.06571747945723
46382;BME280;66809;52.974;-2.514;2023-04-06T04:57:52;1003.6250865960459;;;9.677418421916226;44.09053050836265
46382;BME280;66809;52.974;-2.514;2023-04-06T04:59:52;1003.6308569564904;;;9.654054930215242;44.11436690681871
46382;BME280;66809;52.974;-2.514;2023-04-06T05:01:53;1003.6387098804356;;;9.630988450820597;44.136740430269576
46382;BME280;66809;52.974;-2.514;2023-04-06T05:03:52;1003.6455079506046;;;9.598823695030969;44.162546877037805
46382;BME280;66809;52.974;-2.514;2023-04-06T05:05:53;1003.6521848447795;;;9.575280300316885;44.18270250420607
46382;BME280;66809;52.974;-2.514;2023-04-06T05:07:53;1003.658805220371;;;9.549190160291507;44.19789231971034
46382;BME280;66809;52.974;-2.514;2023-04-06T05:09:52;1003.665956860783;;;9.523873002047859;44.20390542685925
46382;BME280;66809;52.974;-2.514;2023-04-06T05:11:53;1003.6737978265173;;;9.510426753398292;44.21559232557237
46382;BME280;66809;52.974;-2.514;2023-04-06T05:13:53;1003.6808425254275;;;9.498173581641543;44.219272932548016
46382;BME280;66809;52.974;-2.514;2023-04-06T05:15:52;1003.689043583197;;;9.465363875744483;44.22185348682899
46382;BME280;66809;52.974;-2.514;2023-04-06T05:17:53;1003.698272470335;;;9.442448624311185;44.23036559043343
46382;BME280;66809;52.974;-2.514;2023-04-06T05:19:53;1003.7090260938293;;;9.405963276313067;44.24664875143445
46382;BME280;66809;52.974;-2.514;2023-04-06T05:21:52;1003.722079934444;;;9.344857850187553;44.27995035585281
46382;BME280;66809;52.974;-2.514;2023-04-06T05:23:53;1003.7365538318161;;;9.290020769467072;44.334917618518986
46382;BME280;66809;52.974;-2.514;2023-04-06T05:25:53;1003.7508898644508;;;9.24828429092756;44.39944325459774
46382;BME280;66809;52.974;-2.514;2023-04-06T05:27:52;1003.7656752861164;;;9.204315886252116;44.45303105900536
46382;BME280;66809;52.974;-2.514;2023-04-06T05:29:53;1003.7793048372724;;;9.160707816188962;44.4919068414927
46382;BME280;66809;52.974;-2.514;2023-04-06T05:31:53;1003.79443534156;;;9.107707406961657;44.52961033570097
46382;BME280;66809;52.974;-2.514;2023-04-06T05:33:52;1003.8106221095509;;;9.063931325001027;44.56496105777624
46382;BME280;66809;52.974;-2.514;2023-04-06T05:35:52;1003.8281908943217;;;9.01352811044966;44.60282986475313
46382;BME280;66809;52.974;-2.514;2023-04-06T05:37:52;1003.8459009540196;;;8.971423996753659;44.62961471229532
46382;BME280;66809;52.974;-2.514;2023-04-06T05:39:53;1003.8658369700827;;;8.928555333094513;44.66058563116486
46382;BME280;66809;52.974;-2.514;2023-04-06T05:41:53;1003.8838618065241;;;8.879276053166711;44.698223846414336
46382;BME280;66809;52.974;-2.514;2023-04-06T05:43:52;1003.9021665502229;;;8.83577332840028;44.74061124791571
46382;BME280;66809;52.974;-2.514;2023-04-06T05:45:52;1003.9224389571641;;;8.782366759037178;44.79262490615976
46382;BME280;66809;52.974;-2.514;2023-04-06T05:47:54;1003.9437348085519;;;8.731971134255756;44.85611680089111
46382;BME280;66809;52.974;-2.514;2023-04-06T05:49:52;1003.9637610547835;;;8.691797659269621;44.90300067765607
46382;BME280;66809;52.974;-2.514;2023-04-06T05:51:52;1003.9834187882968;;;8.651876275418507;44.95280065454789
46382;BME280;66809;52.974;-2.514;2023-04-06T05:53:53;1004.0022219387627;;;8.60663205268921;44.995401925807805
46382;BME280;66809;52.974;-2.514;2023-04-06T05:55:52;1004.021145046786;;;8.562187995557089;45.03110824520433
46382;BME280;66809;52.974;-2.514;2023-04-06T05:57:52;1004.0409604564933;;;8.527024088175;45.06808139603972
46382;BME280;66809;52.974;-2.514;2023-04-06T05:59:53;1004.0608392584074;;;8.489860538554352;45.10377783260737
46382;BME280;66809;52.974;-2.514;2023-04-06T06:01:52;1004.0814808240474;;;8.443597769543778;45.15041628619982
46382;BME280;66809;52.974;-2.514;2023-04-06T06:03:53;1004.1043096555985;;;8.391789764281755;45.201495160320064
46382;BME280;66809;52.974;-2.514;2023-04-06T06:05:53;1004.1278001188089;;;8.344197516451384;45.25326590564028
46382;BME280;66809;52.974;-2.514;2023-04-06T06:07:52;1004.1509666417908;;;8.297119700756763;45.300808910141306
46382;BME280;66809;52.974;-2.514;2023-04-06T06:09:56;1004.1739925395852;;;8.259139144099281;45.34022364437421
46382;BME280;66809;52.974;-2.514;2023-04-06T06:11:53;1004.1974500569471;;;8.218102240966484;45.37146040713193
46382;BME280;66809;52.974;-2.514;2023-04-06T06:13:52;1004.2218143540886;;;8.18506195204609;45.40292683213559
46382;BME280;66809;52.974;-2.514;2023-04-06T06:15:53;1004.2449086284076;;;8.162404461900753;45.42906377922571
46382;BME280;66809;52.974;-2.514;2023-04-06T06:17:52;1004.2677506669282;;;8.127813816399826;45.43648691891115
46382;BME280;66809;52.974;-2.514;2023-04-06T06:19:53;1004.289829633457;;;8.10267336779783;45.44402278260902
46382;BME280;66809;52.974;-2.514;2023-04-06T06:21:53;1004.3110433845796;;;8.091488479148083;45.43271493161351
46382;BME280;66809;52.974;-2.514;2023-04-06T06:23:52;1004.3316273271838;;;8.090312214404214;45.39293639814587
46382;BME280;66809;52.974;-2.514;2023-04-06T06:25:53;1004.3530880052784;;;8.081121511218019;45.34342761320785
46382;BME280;66809;52.974;-2.514;2023-04-06T06:27:53;1004.3741847775481;;;8.074005110426713;45.30077738045732
46382;BME280;66809;52.974;-2.514;2023-04-06T06:29:53;1004.3956692175742;;;8.059150577339576;45.26257031314731
46382;BME280;66809;52.974;-2.514;2023-04-06T06:31:53;1004.4181056411617;;;8.061365746157062;45.22320147310347
46382;BME280;66809;52.974;-2.514;2023-04-06T06:33:52;1004.4441964465816;;;8.07037804116777;45.18435997136007
46382;BME280;66809;52.974;-2.514;2023-04-06T06:35:52;1004.4692176838278;;;8.059371577136437;45.13467355473527
46382;BME280;66809;52.974;-2.514;2023-04-06T06:37:53;1004.4942022040435;;;8.047719171562717;45.109129520932086
46382;BME280;66809;52.974;-2.514;2023-04-06T06:39:52;1004.5185909948891;;;8.036988011602444;45.07804120859755
46382;BME280;66809;52.974;-2.514;2023-04-06T06:41:52;1004.5442558963674;;;8.030138534380566;45.03772451806326
46382;BME280;66809;52.974;-2.514;2023-04-06T06:43:53;1004.571103084303;;;8.020526800560026;44.99683687399815
46382;BME280;66809;52.974;-2.514;2023-04-06T06:45:52;1004.5989970711187;;;8.006092418799469;44.95359397577319
46382;BME280;66809;52.974;-2.514;2023-04-06T06:47:53;1004.6251351560544;;;7.993192617899028;44.900442406697785
46382;BME280;66809;52.974;-2.514;2023-04-06T06:49:52;1004.6499231156619;;;7.9721291934220355;44.85715820664744
46382;BME280;66809;52.974;-2.514;2023-04-06T06:51:52;1004.6736793494043;;;7.957676087245704;44.81408463290472
46382;BME280;66809;52.974;-2.514;2023-04-06T06:53:53;1004.6986307940891;;;7.95399516772535;44.77104167042664
46382;BME280;66809;52.974;-2.514;2023-04-06T06:55:52;1004.7219013441031;;;7.951437118791956;44.72255625830798
46382;BME280;66809;52.974;-2.514;2023-04-06T06:57:53;1004.743465190859;;;7.9531605222445325;44.66310515103109
46382;BME280;66809;52.974;-2.514;2023-04-06T06:59:53;1004.7644883501326;;;7.948615119372418;44.6033623286751
46382;BME280;66809;52.974;-2.514;2023-04-06T07:01:52;1004.7847606129277;;;7.951301768538504;44.53566838097535
46382;BME280;66809;52.974;-2.514;2023-04-06T07:03:52;1004.8047017366756;;;7.962447133527647;44.469954560250336
46382;BME280;66809;52.974;-2.514;2023-04-06T07:05:53;1004.8237211493544;;;7.963455354165721;44.39897106174788
46382;BME280;66809;52.974;-2.514;2023-04-06T07:07:53;1004.8432423990699;;;7.951845943211518;44.3303592892812
46382;BME280;66809;52.974;-2.514;2023-04-06T07:09:52;1004.8611647318857;;;7.934119982976191;44.275147007266796
46382;BME280;66809;52.974;-2.514;2023-04-06T07:11:53;1004.87785664334;;;7.918593355001016;44.22537049352484
46382;BME280;66809;52.974;-2.514;2023-04-06T07:13:53;1004.8959950346674;;;7.917175474676426;44.1765719898912